createdAt,value
2018-01-22T00:00:47.615Z,0.70
2018-01-22T00:03:15.218Z,0.70
2018-01-22T00:05:42.681Z,0.80
2018-01-22T00:08:10.173Z,0.70
2018-01-22T00:10:37.678Z,0.70
2018-01-22T00:13:09.423Z,0.70
2018-01-22T00:15:36.879Z,0.80
2018-01-22T00:18:04.344Z,0.80
2018-01-22T00:20:31.948Z,0.80
2018-01-22T00:22:59.560Z,0.80
2018-01-22T00:25:27.013Z,0.80
2018-01-22T00:27:54.795Z,0.90
2018-01-22T00:30:22.440Z,0.90
2018-01-22T00:32:50.327Z,0.90
2018-01-22T00:35:17.764Z,0.90
2018-01-22T00:37:46.025Z,0.90
2018-01-22T00:40:14.468Z,0.90
2018-01-22T00:42:41.940Z,0.90
2018-01-22T00:45:09.404Z,0.90
2018-01-22T00:47:36.857Z,0.80
2018-01-22T00:50:04.329Z,0.90
2018-01-22T00:52:31.788Z,0.90
2018-01-22T00:54:59.262Z,0.90
2018-01-22T00:57:26.724Z,1.00
2018-01-22T00:59:54.342Z,1.00
2018-01-22T01:02:21.804Z,1.10
2018-01-22T01:04:49.244Z,1.10
2018-01-22T01:07:17.487Z,1.10
2018-01-22T01:09:44.993Z,1.10
2018-01-22T01:12:12.461Z,1.00
2018-01-22T01:14:39.929Z,1.00
2018-01-22T01:17:07.401Z,0.90
2018-01-22T01:19:34.847Z,1.00
2018-01-22T01:22:02.317Z,1.00
2018-01-22T01:24:29.772Z,1.10
2018-01-22T01:26:57.261Z,1.10
2018-01-22T01:29:26.393Z,1.10
2018-01-22T01:31:53.856Z,1.10
2018-01-22T01:34:21.324Z,1.00
2018-01-22T01:36:49.305Z,1.00
2018-01-22T01:39:16.771Z,1.10
2018-01-22T01:41:45.809Z,1.10
2018-01-22T01:44:16.698Z,1.10
2018-01-22T01:46:44.188Z,1.10
2018-01-22T01:49:11.627Z,1.10
2018-01-22T01:51:39.373Z,1.10
2018-01-22T01:54:06.824Z,1.20
2018-01-22T01:56:34.613Z,1.20
2018-01-22T01:59:02.113Z,1.20
2018-01-22T02:01:29.543Z,1.10
2018-01-22T02:03:56.988Z,1.20
2018-01-22T02:06:24.532Z,1.10
2018-01-22T02:08:53.698Z,1.20
2018-01-22T02:11:21.160Z,1.10
2018-01-22T02:13:48.671Z,1.10
2018-01-22T02:16:16.146Z,1.20
2018-01-22T02:18:43.618Z,1.20
2018-01-22T02:21:11.062Z,1.20
2018-01-22T02:23:38.569Z,1.10
2018-01-22T02:26:06.071Z,1.20
2018-01-22T02:28:33.537Z,1.10
2018-01-22T02:31:05.425Z,1.20
2018-01-22T02:33:32.877Z,1.20
2018-01-22T02:36:00.460Z,1.10
2018-01-22T02:38:27.905Z,1.10
2018-01-22T02:40:55.419Z,1.10
2018-01-22T02:43:22.929Z,1.10
2018-01-22T02:45:52.165Z,1.10
2018-01-22T02:48:20.417Z,1.20
2018-01-22T02:50:47.913Z,1.10
2018-01-22T02:53:16.528Z,1.10
2018-01-22T02:55:43.986Z,1.10
2018-01-22T02:58:11.449Z,1.10
2018-01-22T03:00:38.901Z,1.10
2018-01-22T03:03:06.423Z,1.10
2018-01-22T03:05:33.873Z,1.10
2018-01-22T03:08:01.448Z,1.10
2018-01-22T03:10:29.844Z,1.10
2018-01-22T03:12:57.325Z,1.10
2018-01-22T03:15:24.825Z,1.10
2018-01-22T03:17:52.494Z,1.10
2018-01-22T03:20:19.968Z,1.00
2018-01-22T03:22:47.440Z,1.00
2018-01-22T03:25:14.894Z,0.90
2018-01-22T03:27:42.334Z,0.90
2018-01-22T03:30:09.818Z,0.90
2018-01-22T03:32:38.221Z,0.90
2018-01-22T03:35:05.700Z,0.90
2018-01-22T03:37:33.174Z,1.00
2018-01-22T03:40:01.396Z,0.90
2018-01-22T03:42:28.949Z,0.90
2018-01-22T03:44:57.212Z,0.90
2018-01-22T03:47:24.703Z,0.90
2018-01-22T03:49:52.925Z,0.90
2018-01-22T03:52:20.380Z,0.90
2018-01-22T03:54:47.852Z,0.90
2018-01-22T03:57:15.320Z,0.90
2018-01-22T03:59:42.768Z,0.80
2018-01-22T04:02:11.136Z,0.80
2018-01-22T04:04:38.625Z,0.80
2018-01-22T04:07:06.101Z,0.90
2018-01-22T04:09:33.559Z,0.90
2018-01-22T04:12:01.006Z,0.90
2018-01-22T04:14:28.473Z,0.90
2018-01-22T04:17:02.306Z,0.90
2018-01-22T04:19:31.648Z,0.90
2018-01-22T04:21:59.428Z,0.90
2018-01-22T04:24:26.939Z,0.90
2018-01-22T04:26:54.413Z,1.00
2018-01-22T04:29:22.126Z,0.90
2018-01-22T04:31:50.622Z,0.90
2018-01-22T04:34:18.851Z,0.90
2018-01-22T04:36:46.392Z,0.90
2018-01-22T04:39:13.844Z,1.00
2018-01-22T04:41:41.306Z,0.90
2018-01-22T04:44:09.439Z,0.90
2018-01-22T04:46:37.664Z,0.90
2018-01-22T04:49:05.112Z,0.90
2018-01-22T04:51:32.592Z,0.90
2018-01-22T04:54:00.064Z,0.90
2018-01-22T04:56:27.595Z,0.90
2018-01-22T04:58:55.048Z,0.90
2018-01-22T05:01:23.010Z,0.90
2018-01-22T05:03:58.155Z,0.90
2018-01-22T05:06:25.616Z,0.90
2018-01-22T05:08:54.040Z,0.90
2018-01-22T05:11:21.497Z,0.90
2018-01-22T05:13:49.719Z,0.90
2018-01-22T05:16:17.198Z,0.80
2018-01-22T05:18:44.736Z,0.80
2018-01-22T05:21:13.965Z,0.80
2018-01-22T05:23:41.412Z,0.80
2018-01-22T05:26:09.654Z,0.90
2018-01-22T05:28:37.889Z,0.90
2018-01-22T05:31:05.384Z,0.90
2018-01-22T05:33:32.837Z,0.90
2018-01-22T05:36:00.442Z,0.90
2018-01-22T05:38:27.936Z,0.90
2018-01-22T05:40:57.077Z,0.90
2018-01-22T05:43:24.563Z,0.90
2018-01-22T05:45:52.045Z,0.90
2018-01-22T05:48:19.489Z,0.90
2018-01-22T05:50:47.046Z,0.90
2018-01-22T05:53:14.513Z,0.90
2018-01-22T05:55:42.778Z,0.90
2018-01-22T05:58:11.940Z,0.90
2018-01-22T06:00:39.415Z,0.80
2018-01-22T06:03:06.894Z,0.90
2018-01-22T06:05:34.374Z,0.80
2018-01-22T06:08:01.856Z,0.80
2018-01-22T06:10:30.046Z,0.80
2018-01-22T06:12:57.496Z,0.80
2018-01-22T06:15:24.973Z,0.80
2018-01-22T06:17:52.457Z,0.80
2018-01-22T06:20:20.887Z,0.80
2018-01-22T06:22:50.025Z,0.80
2018-01-22T06:25:17.771Z,0.80
2018-01-22T06:27:45.236Z,0.80
2018-01-22T06:30:12.749Z,0.80
2018-01-22T06:32:40.511Z,0.80
2018-01-22T06:35:08.494Z,0.80
2018-01-22T06:37:35.937Z,0.80
2018-01-22T06:40:03.454Z,0.80
2018-01-22T06:42:30.929Z,0.80
2018-01-22T06:44:58.402Z,0.80
2018-01-22T06:47:25.925Z,0.80
2018-01-22T06:49:53.401Z,0.80
2018-01-22T06:52:22.584Z,0.80
2018-01-22T06:54:50.183Z,0.80
2018-01-22T06:57:18.295Z,0.80
2018-01-22T06:59:47.794Z,0.90
2018-01-22T07:02:15.258Z,0.90
2018-01-22T07:04:46.313Z,0.90
2018-01-22T07:07:13.769Z,1.00
2018-01-22T07:09:42.071Z,1.00
2018-01-22T07:12:10.278Z,1.00
2018-01-22T07:14:37.752Z,1.00
2018-01-22T07:17:06.304Z,1.00
2018-01-22T07:19:39.078Z,1.00
2018-01-22T07:22:06.722Z,1.00
2018-01-22T07:24:34.212Z,1.10
2018-01-22T07:27:02.309Z,1.30
2018-01-22T07:29:29.820Z,1.40
2018-01-22T07:31:57.293Z,1.40
2018-01-22T07:34:24.769Z,1.30
2018-01-22T07:36:52.272Z,1.30
2018-01-22T07:39:19.702Z,1.30
2018-01-22T07:41:47.174Z,1.30
2018-01-22T07:44:14.664Z,1.30
2018-01-22T07:46:42.288Z,1.30
2018-01-22T07:49:10.968Z,1.30
2018-01-22T07:51:38.496Z,1.30
2018-01-22T07:54:06.351Z,1.30
2018-01-22T07:56:34.626Z,1.40
2018-01-22T07:59:02.108Z,1.40
2018-01-22T08:01:29.596Z,1.40
2018-01-22T08:03:57.063Z,1.50
2018-01-22T08:06:24.517Z,1.50
2018-01-22T08:08:52.015Z,1.60
2018-01-22T08:11:19.464Z,1.70
2018-01-22T08:13:46.915Z,1.70
2018-01-22T08:16:15.134Z,1.80
2018-01-22T08:18:43.143Z,1.80
2018-01-22T08:21:10.617Z,1.80
2018-01-22T08:23:38.089Z,1.90
2018-01-22T08:26:05.544Z,2.00
2018-01-22T08:28:33.031Z,2.00
2018-01-22T08:31:01.261Z,2.00
2018-01-22T08:33:28.760Z,2.00
2018-01-22T08:36:00.330Z,2.10
2018-01-22T08:38:27.784Z,2.10
2018-01-22T08:40:55.261Z,2.10
2018-01-22T08:43:22.709Z,2.20
2018-01-22T08:45:50.153Z,2.20
2018-01-22T08:48:17.724Z,2.30
2018-01-22T08:50:45.168Z,2.30
2018-01-22T08:53:12.625Z,2.40
2018-01-22T08:55:41.495Z,2.30
2018-01-22T08:58:08.962Z,2.30
2018-01-22T09:00:36.429Z,2.30
2018-01-22T09:03:04.075Z,2.30
2018-01-22T09:05:31.652Z,2.30
2018-01-22T09:07:59.124Z,2.40
2018-01-22T09:10:26.651Z,2.40
2018-01-22T09:12:54.783Z,2.40
2018-01-22T09:15:23.006Z,2.50
2018-01-22T09:17:50.492Z,2.50
2018-01-22T09:20:17.959Z,2.50
2018-01-22T09:22:45.636Z,2.50
2018-01-22T09:25:13.707Z,2.50
2018-01-22T09:27:41.176Z,2.40
2018-01-22T09:30:08.621Z,2.40
2018-01-22T09:32:36.085Z,2.40
2018-01-22T09:35:03.593Z,2.40
2018-01-22T09:37:31.045Z,2.40
2018-01-22T09:39:58.829Z,2.40
2018-01-22T09:42:26.677Z,2.40
2018-01-22T09:44:54.149Z,2.40
2018-01-22T09:47:22.344Z,2.30
2018-01-22T09:49:49.840Z,2.40
2018-01-22T09:52:17.271Z,2.40
2018-01-22T09:54:44.732Z,2.50
2018-01-22T09:57:12.204Z,2.50
2018-01-22T09:59:39.684Z,2.50
2018-01-22T10:02:07.144Z,2.40
2018-01-22T10:04:34.610Z,2.40
2018-01-22T10:07:02.098Z,2.50
2018-01-22T10:09:30.452Z,2.60
2018-01-22T10:11:57.928Z,2.60
2018-01-22T10:14:25.380Z,2.70
2018-01-22T10:16:52.888Z,2.70
2018-01-22T10:19:20.350Z,2.70
2018-01-22T10:21:47.797Z,2.70
2018-01-22T10:24:18.292Z,2.70
2018-01-22T10:26:45.777Z,2.70
2018-01-22T10:29:13.272Z,2.80
2018-01-22T10:31:40.717Z,2.90
2018-01-22T10:34:08.180Z,2.90
2018-01-22T10:36:35.650Z,3.00
2018-01-22T10:39:10.856Z,3.10
2018-01-22T10:41:38.285Z,3.20
2018-01-22T10:44:05.753Z,3.30
2018-01-22T10:46:34.984Z,3.50
2018-01-22T10:49:02.804Z,3.50
2018-01-22T10:51:31.043Z,3.40
2018-01-22T10:53:59.237Z,3.40
2018-01-22T10:56:27.474Z,3.30
2018-01-22T10:58:55.016Z,3.30
2018-01-22T11:01:22.438Z,3.30
2018-01-22T11:03:50.123Z,3.20
2018-01-22T11:06:18.168Z,3.10
2018-01-22T11:08:46.228Z,3.20
2018-01-22T11:11:14.462Z,3.20
2018-01-22T11:13:42.007Z,3.20
2018-01-22T11:16:10.424Z,3.40
2018-01-22T11:18:37.886Z,3.50
2018-01-22T11:21:05.364Z,3.50
2018-01-22T11:23:37.199Z,3.50
2018-01-22T11:26:04.652Z,3.50
2018-01-22T11:28:32.682Z,3.40
2018-01-22T11:31:00.156Z,3.40
2018-01-22T11:33:27.653Z,3.40
2018-01-22T11:35:55.254Z,3.40
2018-01-22T11:38:22.785Z,3.40
2018-01-22T11:40:53.403Z,3.40
2018-01-22T11:43:20.919Z,3.50
2018-01-22T11:45:48.354Z,3.50
2018-01-22T11:48:16.717Z,3.60
2018-01-22T11:50:44.189Z,3.60
2018-01-22T11:53:11.673Z,3.60
2018-01-22T11:55:39.117Z,3.60
2018-01-22T11:58:06.573Z,3.70
2018-01-22T12:00:34.048Z,3.80
2018-01-22T12:03:01.488Z,3.80
2018-01-22T12:05:28.931Z,3.90
2018-01-22T12:07:56.511Z,3.90
2018-01-22T12:10:24.885Z,4.00
2018-01-22T12:12:52.352Z,4.00
2018-01-22T12:15:19.945Z,4.00
2018-01-22T12:17:47.410Z,3.90
2018-01-22T12:20:14.865Z,3.90
2018-01-22T12:22:42.340Z,3.90
2018-01-22T12:25:13.148Z,3.90
2018-01-22T12:27:40.588Z,4.00
2018-01-22T12:30:08.760Z,4.10
2018-01-22T12:32:36.299Z,4.10
2018-01-22T12:35:03.796Z,4.00
2018-01-22T12:37:31.245Z,4.00
2018-01-22T12:40:01.738Z,4.00
2018-01-22T12:42:29.275Z,4.00
2018-01-22T12:44:56.740Z,4.00
2018-01-22T12:47:24.232Z,4.10
2018-01-22T12:49:51.700Z,4.10
2018-01-22T12:52:19.144Z,4.10
2018-01-22T12:54:47.336Z,4.10
2018-01-22T12:57:14.793Z,4.10
2018-01-22T12:59:42.241Z,4.10
2018-01-22T13:02:09.700Z,4.10
2018-01-22T13:04:37.128Z,4.10
2018-01-22T13:07:04.601Z,4.00
2018-01-22T13:09:32.083Z,4.10
2018-01-22T13:11:59.587Z,4.10
2018-01-22T13:14:27.800Z,4.10
2018-01-22T13:16:55.406Z,4.10
2018-01-22T13:19:23.652Z,4.10
2018-01-22T13:21:51.100Z,4.10
2018-01-22T13:24:18.596Z,4.10
2018-01-22T13:26:46.041Z,4.10
2018-01-22T13:29:13.548Z,4.20
2018-01-22T13:31:40.983Z,4.30
2018-01-22T13:34:08.476Z,4.30
2018-01-22T13:36:36.015Z,4.40
2018-01-22T13:39:05.012Z,4.60
2018-01-22T13:41:35.355Z,4.60
2018-01-22T13:44:02.810Z,4.60
2018-01-22T13:46:30.280Z,4.50
2018-01-22T13:48:57.747Z,4.50
2018-01-22T13:51:25.232Z,4.50
2018-01-22T13:53:53.689Z,4.40
2018-01-22T13:56:21.178Z,4.50
2018-01-22T13:58:49.100Z,4.50
2018-01-22T14:01:16.569Z,4.50
2018-01-22T14:03:44.033Z,4.40
2018-01-22T14:06:11.499Z,4.40
2018-01-22T14:08:39.101Z,4.40
2018-01-22T14:11:07.037Z,4.40
2018-01-22T14:13:34.765Z,4.50
2018-01-22T14:16:02.431Z,4.40
2018-01-22T14:18:29.881Z,4.50
2018-01-22T14:20:57.371Z,4.40
2018-01-22T14:23:24.896Z,4.40
2018-01-22T14:25:52.380Z,4.50
2018-01-22T14:28:20.053Z,4.40
2018-01-22T14:30:47.516Z,4.40
2018-01-22T14:33:15.692Z,4.40
2018-01-22T14:35:43.203Z,4.50
2018-01-22T14:38:10.649Z,4.40
2018-01-22T14:40:38.212Z,4.40
2018-01-22T14:43:05.704Z,4.40
2018-01-22T14:45:34.919Z,4.40
2018-01-22T14:48:03.141Z,4.50
2018-01-22T14:50:30.652Z,4.40
2018-01-22T14:52:58.092Z,4.50
2018-01-22T14:55:25.572Z,4.40
2018-01-22T14:57:56.129Z,4.40
2018-01-22T15:00:24.148Z,4.50
2018-01-22T15:02:51.634Z,4.40
2018-01-22T15:05:19.130Z,4.40
2018-01-22T15:07:46.580Z,4.30
2018-01-22T15:10:14.048Z,4.30
2018-01-22T15:12:45.106Z,4.30
2018-01-22T15:15:13.503Z,4.30
2018-01-22T15:17:41.264Z,4.30
2018-01-22T15:20:10.329Z,4.30
2018-01-22T15:22:38.545Z,4.30
2018-01-22T15:25:06.118Z,4.30
2018-01-22T15:27:33.561Z,4.20
2018-01-22T15:30:01.068Z,4.20
2018-01-22T15:32:30.051Z,4.20
2018-01-22T15:34:58.362Z,4.30
2018-01-22T15:37:25.813Z,4.30
2018-01-22T15:39:53.310Z,4.30
2018-01-22T15:42:21.119Z,4.20
2018-01-22T15:44:48.816Z,4.30
2018-01-22T15:47:16.637Z,4.30
2018-01-22T15:49:44.142Z,4.30
2018-01-22T15:52:11.595Z,4.10
2018-01-22T15:54:39.273Z,4.00
2018-01-22T15:57:06.890Z,3.80
2018-01-22T15:59:34.333Z,3.60
2018-01-22T16:02:01.796Z,3.40
2018-01-22T16:04:29.506Z,3.30
2018-01-22T16:06:57.028Z,3.30
2018-01-22T16:09:25.256Z,3.30
2018-01-22T16:11:52.744Z,3.30
2018-01-22T16:14:20.212Z,3.30
2018-01-22T16:16:47.719Z,3.40
2018-01-22T16:19:15.966Z,3.60
2018-01-22T16:21:44.508Z,3.60
2018-01-22T16:24:12.006Z,3.60
2018-01-22T16:26:39.524Z,3.60
2018-01-22T16:29:07.102Z,3.60
2018-01-22T16:31:34.597Z,3.70
2018-01-22T16:34:02.058Z,3.70
2018-01-22T16:36:29.656Z,3.80
2018-01-22T16:38:57.172Z,3.70
2018-01-22T16:41:24.771Z,3.70
2018-01-22T16:43:56.088Z,3.70
2018-01-22T16:46:23.560Z,3.80
2018-01-22T16:48:51.128Z,3.80
2018-01-22T16:51:18.599Z,3.80
2018-01-22T16:53:46.050Z,3.90
2018-01-22T16:56:13.537Z,3.90
2018-01-22T16:58:41.193Z,4.00
2018-01-22T17:01:08.689Z,4.00
2018-01-22T17:03:37.111Z,4.00
2018-01-22T17:06:04.578Z,3.90
2018-01-22T17:08:32.130Z,4.00
2018-01-22T17:10:59.629Z,4.00
2018-01-22T17:13:27.084Z,4.00
2018-01-22T17:15:54.708Z,4.10
2018-01-22T17:18:22.213Z,4.10
2018-01-22T17:20:50.247Z,4.00
2018-01-22T17:23:17.697Z,4.00
2018-01-22T17:25:45.147Z,4.10
2018-01-22T17:28:12.658Z,4.00
2018-01-22T17:30:44.314Z,4.10
2018-01-22T17:33:11.776Z,4.10
2018-01-22T17:35:39.847Z,4.10
2018-01-22T17:38:07.475Z,4.10
2018-01-22T17:40:34.937Z,4.10
2018-01-22T17:43:02.413Z,4.10
2018-01-22T17:45:29.881Z,4.10
2018-01-22T17:47:57.431Z,4.00
2018-01-22T17:50:24.918Z,4.00
2018-01-22T17:52:54.086Z,4.10
2018-01-22T17:55:21.633Z,4.00
2018-01-22T17:57:49.223Z,4.10
2018-01-22T18:00:17.497Z,4.00
2018-01-22T18:02:45.874Z,4.00
2018-01-22T18:05:13.484Z,4.00
2018-01-22T18:07:40.953Z,4.10
2018-01-22T18:10:08.513Z,4.10
2018-01-22T18:12:35.953Z,4.20
2018-01-22T18:15:03.402Z,4.20
2018-01-22T18:17:30.859Z,4.10
2018-01-22T18:19:58.598Z,4.00
2018-01-22T18:22:26.259Z,4.00
2018-01-22T18:24:53.760Z,4.10
2018-01-22T18:27:21.406Z,4.10
2018-01-22T18:29:48.857Z,4.00
2018-01-22T18:32:16.332Z,4.10
2018-01-22T18:34:43.779Z,4.10
2018-01-22T18:37:11.343Z,4.10
2018-01-22T18:39:38.883Z,4.00
2018-01-22T18:42:06.437Z,4.00
2018-01-22T18:44:35.772Z,3.90
2018-01-22T18:47:03.210Z,3.90
2018-01-22T18:49:31.937Z,3.90
2018-01-22T18:51:59.372Z,3.80
2018-01-22T18:54:26.953Z,3.90
2018-01-22T18:56:54.487Z,3.90
2018-01-22T18:59:21.951Z,3.80
2018-01-22T19:01:49.463Z,3.90
2018-01-22T19:04:17.750Z,4.00
2018-01-22T19:06:45.199Z,3.90
2018-01-22T19:09:14.682Z,4.10
2018-01-22T19:11:42.145Z,4.00
2018-01-22T19:14:09.639Z,4.10
2018-01-22T19:16:42.124Z,4.00
2018-01-22T19:19:09.603Z,4.00
2018-01-22T19:21:37.042Z,4.00
2018-01-22T19:24:05.301Z,3.90
2018-01-22T19:26:32.895Z,4.00
2018-01-22T19:29:00.443Z,4.00
2018-01-22T19:31:27.876Z,4.00
2018-01-22T19:33:55.436Z,4.00
2018-01-22T19:36:23.384Z,4.10
2018-01-22T19:38:52.568Z,4.10
2018-01-22T19:41:20.033Z,4.00
2018-01-22T19:43:47.755Z,4.10
2018-01-22T19:46:15.272Z,4.10
2018-01-22T19:48:42.764Z,4.10
2018-01-22T19:51:10.244Z,4.10
2018-01-22T19:53:37.771Z,4.10
2018-01-22T19:56:05.985Z,4.10
2018-01-22T19:58:33.480Z,4.20
2018-01-22T20:01:00.999Z,4.20
2018-01-22T20:03:28.616Z,4.30
2018-01-22T20:05:56.913Z,4.40
2018-01-22T20:08:25.338Z,4.40
2018-01-22T20:10:53.402Z,4.30
2018-01-22T20:13:20.935Z,4.30
2018-01-22T20:15:48.422Z,4.30
2018-01-22T20:18:15.927Z,4.30
2018-01-22T20:20:43.586Z,4.30
2018-01-22T20:23:11.061Z,4.30
2018-01-22T20:25:38.899Z,4.40
2018-01-22T20:28:06.500Z,4.40
2018-01-22T20:30:33.989Z,4.40
2018-01-22T20:33:01.434Z,4.30
2018-01-22T20:35:29.729Z,4.30
2018-01-22T20:37:58.972Z,4.30
2018-01-22T20:40:26.686Z,4.30
2018-01-22T20:42:54.168Z,4.30
2018-01-22T20:45:21.625Z,4.30
2018-01-22T20:47:52.708Z,4.40
2018-01-22T20:50:20.174Z,4.40
2018-01-22T20:52:47.694Z,4.40
2018-01-22T20:55:15.186Z,4.40
2018-01-22T20:57:42.687Z,4.50
2018-01-22T21:00:10.205Z,4.50
2018-01-22T21:02:37.719Z,4.50
2018-01-22T21:05:05.239Z,4.50
2018-01-22T21:07:32.673Z,4.50
2018-01-22T21:10:00.190Z,4.50
2018-01-22T21:12:28.597Z,4.50
2018-01-22T21:14:56.296Z,4.50
2018-01-22T21:17:23.791Z,4.50
2018-01-22T21:19:51.363Z,4.50
2018-01-22T21:22:18.852Z,4.50
2018-01-22T21:24:46.315Z,4.60
2018-01-22T21:27:14.708Z,4.60
2018-01-22T21:29:42.197Z,4.70
2018-01-22T21:32:09.714Z,4.70
2018-01-22T21:34:40.532Z,4.80
2018-01-22T21:37:07.989Z,4.70
2018-01-22T21:39:35.452Z,4.70
2018-01-22T21:42:02.993Z,4.80
2018-01-22T21:44:30.468Z,4.80
2018-01-22T21:46:58.923Z,4.80
2018-01-22T21:49:33.674Z,4.80
2018-01-22T21:52:01.125Z,4.80
2018-01-22T21:54:28.654Z,4.80
2018-01-22T21:56:56.103Z,4.80
2018-01-22T21:59:24.591Z,4.80
2018-01-22T22:01:52.066Z,4.80
2018-01-22T22:04:19.554Z,4.80
2018-01-22T22:06:47.306Z,4.80
2018-01-22T22:09:14.760Z,4.80
2018-01-22T22:11:43.151Z,4.80
2018-01-22T22:14:10.616Z,4.80
2018-01-22T22:16:38.110Z,4.80
2018-01-22T22:19:05.622Z,4.80
2018-01-22T22:21:33.118Z,4.80
2018-01-22T22:24:00.586Z,4.80
2018-01-22T22:26:28.039Z,4.80
2018-01-22T22:28:55.582Z,4.80
2018-01-22T22:31:26.100Z,4.80
2018-01-22T22:33:54.306Z,4.90
2018-01-22T22:36:22.055Z,4.90
2018-01-22T22:38:49.539Z,4.80
2018-01-22T22:41:16.964Z,4.80
2018-01-22T22:43:44.413Z,4.80
2018-01-22T22:46:11.869Z,4.90
2018-01-22T22:48:39.335Z,4.90
2018-01-22T22:51:10.132Z,4.90
2018-01-22T22:53:37.649Z,4.90
2018-01-22T22:56:05.464Z,4.90
2018-01-22T22:58:32.920Z,4.90
2018-01-22T23:01:00.398Z,4.90
2018-01-22T23:03:28.631Z,4.90
2018-01-22T23:05:59.511Z,4.90
2018-01-22T23:08:27.148Z,4.90
2018-01-22T23:10:55.926Z,4.90
2018-01-22T23:13:23.393Z,4.80
2018-01-22T23:15:50.834Z,4.80
2018-01-22T23:18:18.312Z,4.80
2018-01-22T23:20:45.813Z,4.80
2018-01-22T23:23:14.652Z,4.80
2018-01-22T23:25:42.171Z,4.90
2018-01-22T23:28:09.645Z,4.90
2018-01-22T23:30:37.133Z,4.80
2018-01-22T23:33:05.560Z,4.80
2018-01-22T23:35:33.480Z,4.80
2018-01-22T23:38:00.993Z,4.80
2018-01-22T23:40:28.477Z,4.80
2018-01-22T23:42:55.950Z,4.80
2018-01-22T23:45:25.292Z,4.80
2018-01-22T23:47:52.750Z,4.80
2018-01-22T23:50:20.191Z,4.80
2018-01-22T23:52:47.652Z,4.80
2018-01-22T23:55:15.368Z,4.80
2018-01-22T23:57:42.820Z,4.80
